sensor_id;sensor_type;location;lat;lon;timestamp;P1;durP1;ratioP1;P2;durP2;ratioP2
26311;SDS011;14019;56.964;24.016;2023-11-19T00:01:41;25.48;;;11.43;;
26311;SDS011;14019;56.964;24.016;2023-11-19T00:04:27;29.17;;;11.90;;
26311;SDS011;14019;56.964;24.016;2023-11-19T00:07:15;26.13;;;11.35;;
26311;SDS011;14019;56.964;24.016;2023-11-19T00:10:04;24.02;;;11.25;;
26311;SDS011;14019;56.964;24.016;2023-11-19T00:12:52;28.00;;;11.52;;
26311;SDS011;14019;56.964;24.016;2023-11-19T00:15:38;29.42;;;12.15;;
26311;SDS011;14019;56.964;24.016;2023-11-19T00:18:24;27.85;;;12.40;;
26311;SDS011;14019;56.964;24.016;2023-11-19T00:21:10;28.77;;;12.45;;
26311;SDS011;14019;56.964;24.016;2023-11-19T00:23:57;25.65;;;11.85;;
26311;SDS011;14019;56.964;24.016;2023-11-19T00:26:43;28.60;;;11.93;;
26311;SDS011;14019;56.964;24.016;2023-11-19T00:29:29;27.85;;;11.95;;
26311;SDS011;14019;56.964;24.016;2023-11-19T00:32:16;30.85;;;12.30;;
26311;SDS011;14019;56.964;24.016;2023-11-19T00:35:02;28.77;;;12.65;;
26311;SDS011;14019;56.964;24.016;2023-11-19T00:37:49;29.70;;;12.18;;
26311;SDS011;14019;56.964;24.016;2023-11-19T00:40:36;25.05;;;11.35;;
26311;SDS011;14019;56.964;24.016;2023-11-19T00:43:22;27.95;;;12.27;;
26311;SDS011;14019;56.964;24.016;2023-11-19T00:46:09;29.20;;;12.57;;
26311;SDS011;14019;56.964;24.016;2023-11-19T00:49:01;26.17;;;11.55;;
26311;SDS011;14019;56.964;24.016;2023-11-19T00:51:48;26.80;;;11.88;;
26311;SDS011;14019;56.964;24.016;2023-11-19T00:54:34;26.38;;;11.73;;
26311;SDS011;14019;56.964;24.016;2023-11-19T00:57:20;28.75;;;12.18;;
26311;SDS011;14019;56.964;24.016;2023-11-19T01:00:07;26.58;;;11.63;;
26311;SDS011;14019;56.964;24.016;2023-11-19T01:03:04;30.83;;;12.20;;
26311;SDS011;14019;56.964;24.016;2023-11-19T01:05:53;26.20;;;11.55;;
26311;SDS011;14019;56.964;24.016;2023-11-19T01:08:39;27.23;;;12.55;;
26311;SDS011;14019;56.964;24.016;2023-11-19T01:11:25;29.23;;;11.98;;
26311;SDS011;14019;56.964;24.016;2023-11-19T01:14:12;25.75;;;11.38;;
26311;SDS011;14019;56.964;24.016;2023-11-19T01:16:58;26.20;;;11.35;;
26311;SDS011;14019;56.964;24.016;2023-11-19T01:19:44;28.60;;;12.18;;
26311;SDS011;14019;56.964;24.016;2023-11-19T01:22:30;26.77;;;12.02;;
26311;SDS011;14019;56.964;24.016;2023-11-19T01:25:22;27.08;;;12.23;;
26311;SDS011;14019;56.964;24.016;2023-11-19T01:28:08;26.85;;;11.95;;
26311;SDS011;14019;56.964;24.016;2023-11-19T01:30:55;26.38;;;11.25;;
26311;SDS011;14019;56.964;24.016;2023-11-19T01:33:41;25.98;;;11.82;;
26311;SDS011;14019;56.964;24.016;2023-11-19T01:36:27;28.10;;;12.27;;
26311;SDS011;14019;56.964;24.016;2023-11-19T01:39:14;27.27;;;11.98;;
26311;SDS011;14019;56.964;24.016;2023-11-19T01:42:05;26.45;;;11.80;;
26311;SDS011;14019;56.964;24.016;2023-11-19T01:44:56;26.27;;;11.45;;
26311;SDS011;14019;56.964;24.016;2023-11-19T01:47:43;27.45;;;11.77;;
26311;SDS011;14019;56.964;24.016;2023-11-19T01:50:30;28.67;;;11.90;;
26311;SDS011;14019;56.964;24.016;2023-11-19T01:53:16;27.98;;;11.63;;
26311;SDS011;14019;56.964;24.016;2023-11-19T01:56:04;27.23;;;11.75;;
26311;SDS011;14019;56.964;24.016;2023-11-19T01:58:54;26.83;;;11.02;;
26311;SDS011;14019;56.964;24.016;2023-11-19T02:01:41;26.52;;;11.75;;
26311;SDS011;14019;56.964;24.016;2023-11-19T02:04:27;26.42;;;11.45;;
26311;SDS011;14019;56.964;24.016;2023-11-19T02:07:14;30.05;;;11.43;;
26311;SDS011;14019;56.964;24.016;2023-11-19T02:10:02;28.27;;;11.65;;
26311;SDS011;14019;56.964;24.016;2023-11-19T02:12:50;26.30;;;11.55;;
26311;SDS011;14019;56.964;24.016;2023-11-19T02:15:37;27.48;;;11.82;;
26311;SDS011;14019;56.964;24.016;2023-11-19T02:18:24;27.55;;;11.90;;
26311;SDS011;14019;56.964;24.016;2023-11-19T02:21:13;26.20;;;11.75;;
26311;SDS011;14019;56.964;24.016;2023-11-19T02:24:01;27.98;;;11.80;;
26311;SDS011;14019;56.964;24.016;2023-11-19T02:26:57;27.95;;;11.55;;
26311;SDS011;14019;56.964;24.016;2023-11-19T02:29:45;26.17;;;10.65;;
26311;SDS011;14019;56.964;24.016;2023-11-19T02:32:32;30.02;;;11.23;;
26311;SDS011;14019;56.964;24.016;2023-11-19T02:35:19;25.70;;;12.00;;
26311;SDS011;14019;56.964;24.016;2023-11-19T02:38:06;25.52;;;12.02;;
26311;SDS011;14019;56.964;24.016;2023-11-19T02:40:53;25.80;;;11.38;;
26311;SDS011;14019;56.964;24.016;2023-11-19T02:43:39;29.63;;;12.48;;
26311;SDS011;14019;56.964;24.016;2023-11-19T02:46:25;26.42;;;11.23;;
26311;SDS011;14019;56.964;24.016;2023-11-19T02:49:12;29.83;;;12.48;;
26311;SDS011;14019;56.964;24.016;2023-11-19T02:51:58;27.80;;;12.20;;
26311;SDS011;14019;56.964;24.016;2023-11-19T02:54:45;27.83;;;11.95;;
26311;SDS011;14019;56.964;24.016;2023-11-19T02:57:31;29.15;;;12.35;;
26311;SDS011;14019;56.964;24.016;2023-11-19T03:00:19;31.05;;;12.35;;
26311;SDS011;14019;56.964;24.016;2023-11-19T03:03:10;30.63;;;13.13;;
26311;SDS011;14019;56.964;24.016;2023-11-19T03:06:04;28.95;;;12.57;;
26311;SDS011;14019;56.964;24.016;2023-11-19T03:08:51;31.20;;;12.75;;
26311;SDS011;14019;56.964;24.016;2023-11-19T03:11:37;29.67;;;12.57;;
26311;SDS011;14019;56.964;24.016;2023-11-19T03:14:24;31.10;;;13.15;;
26311;SDS011;14019;56.964;24.016;2023-11-19T03:17:10;27.42;;;11.82;;
26311;SDS011;14019;56.964;24.016;2023-11-19T03:19:56;30.08;;;12.98;;
26311;SDS011;14019;56.964;24.016;2023-11-19T03:22:42;28.17;;;13.10;;
26311;SDS011;14019;56.964;24.016;2023-11-19T03:25:29;29.17;;;12.95;;
26311;SDS011;14019;56.964;24.016;2023-11-19T03:28:19;31.08;;;12.90;;
26311;SDS011;14019;56.964;24.016;2023-11-19T03:31:05;30.48;;;13.10;;
26311;SDS011;14019;56.964;24.016;2023-11-19T03:33:54;28.35;;;12.60;;
26311;SDS011;14019;56.964;24.016;2023-11-19T03:36:43;26.55;;;12.57;;
26311;SDS011;14019;56.964;24.016;2023-11-19T03:39:31;31.42;;;12.88;;
26311;SDS011;14019;56.964;24.016;2023-11-19T03:42:19;26.55;;;11.85;;
26311;SDS011;14019;56.964;24.016;2023-11-19T03:45:09;28.33;;;12.55;;
26311;SDS011;14019;56.964;24.016;2023-11-19T03:47:55;33.58;;;13.07;;
26311;SDS011;14019;56.964;24.016;2023-11-19T03:50:41;26.48;;;12.10;;
26311;SDS011;14019;56.964;24.016;2023-11-19T03:53:28;30.63;;;12.10;;
26311;SDS011;14019;56.964;24.016;2023-11-19T03:56:14;33.47;;;12.60;;
26311;SDS011;14019;56.964;24.016;2023-11-19T03:59:00;28.48;;;11.57;;
26311;SDS011;14019;56.964;24.016;2023-11-19T04:01:46;30.33;;;12.00;;
26311;SDS011;14019;56.964;24.016;2023-11-19T04:04:33;30.50;;;11.60;;
26311;SDS011;14019;56.964;24.016;2023-11-19T04:07:19;30.52;;;12.63;;
26311;SDS011;14019;56.964;24.016;2023-11-19T04:10:05;31.85;;;12.10;;
26311;SDS011;14019;56.964;24.016;2023-11-19T04:12:52;28.52;;;12.27;;
26311;SDS011;14019;56.964;24.016;2023-11-19T04:15:38;31.75;;;12.23;;
26311;SDS011;14019;56.964;24.016;2023-11-19T04:18:24;27.13;;;11.82;;
26311;SDS011;14019;56.964;24.016;2023-11-19T04:21:10;29.83;;;12.02;;
26311;SDS011;14019;56.964;24.016;2023-11-19T04:23:56;28.98;;;11.73;;
26311;SDS011;14019;56.964;24.016;2023-11-19T04:26:44;26.17;;;11.30;;
26311;SDS011;14019;56.964;24.016;2023-11-19T04:29:30;28.25;;;11.88;;
26311;SDS011;14019;56.964;24.016;2023-11-19T04:32:17;29.63;;;12.23;;
26311;SDS011;14019;56.964;24.016;2023-11-19T04:35:03;27.55;;;11.25;;
26311;SDS011;14019;56.964;24.016;2023-11-19T04:37:50;27.30;;;11.10;;
26311;SDS011;14019;56.964;24.016;2023-11-19T04:40:36;29.08;;;12.95;;
26311;SDS011;14019;56.964;24.016;2023-11-19T04:43:22;30.45;;;12.60;;
26311;SDS011;14019;56.964;24.016;2023-11-19T04:46:11;27.50;;;12.15;;
26311;SDS011;14019;56.964;24.016;2023-11-19T04:48:58;29.45;;;12.48;;
26311;SDS011;14019;56.964;24.016;2023-11-19T04:51:44;29.55;;;11.68;;
26311;SDS011;14019;56.964;24.016;2023-11-19T04:54:32;28.05;;;12.02;;
26311;SDS011;14019;56.964;24.016;2023-11-19T04:57:18;26.02;;;11.25;;
26311;SDS011;14019;56.964;24.016;2023-11-19T05:00:04;28.42;;;12.35;;
26311;SDS011;14019;56.964;24.016;2023-11-19T05:03:01;30.27;;;11.25;;
26311;SDS011;14019;56.964;24.016;2023-11-19T05:05:48;25.70;;;11.05;;
26311;SDS011;14019;56.964;24.016;2023-11-19T05:08:34;28.08;;;12.27;;
26311;SDS011;14019;56.964;24.016;2023-11-19T05:11:21;27.58;;;11.65;;
26311;SDS011;14019;56.964;24.016;2023-11-19T05:14:08;23.73;;;10.57;;
26311;SDS011;14019;56.964;24.016;2023-11-19T05:16:54;25.65;;;10.52;;
26311;SDS011;14019;56.964;24.016;2023-11-19T05:19:40;25.20;;;11.25;;
26311;SDS011;14019;56.964;24.016;2023-11-19T05:22:27;27.33;;;11.45;;
26311;SDS011;14019;56.964;24.016;2023-11-19T05:25:15;27.80;;;11.35;;
26311;SDS011;14019;56.964;24.016;2023-11-19T05:28:01;27.17;;;11.23;;
26311;SDS011;14019;56.964;24.016;2023-11-19T05:30:47;26.90;;;11.45;;
26311;SDS011;14019;56.964;24.016;2023-11-19T05:33:34;26.25;;;10.93;;
26311;SDS011;14019;56.964;24.016;2023-11-19T05:36:20;27.88;;;11.15;;
26311;SDS011;14019;56.964;24.016;2023-11-19T05:39:06;26.92;;;11.48;;
26311;SDS011;14019;56.964;24.016;2023-11-19T05:41:52;24.80;;;11.20;;
26311;SDS011;14019;56.964;24.016;2023-11-19T05:44:38;25.02;;;10.63;;
26311;SDS011;14019;56.964;24.016;2023-11-19T05:47:26;29.35;;;11.32;;
26311;SDS011;14019;56.964;24.016;2023-11-19T05:50:12;27.58;;;11.30;;
26311;SDS011;14019;56.964;24.016;2023-11-19T05:52:59;26.02;;;11.18;;
26311;SDS011;14019;56.964;24.016;2023-11-19T05:55:46;28.33;;;11.55;;
26311;SDS011;14019;56.964;24.016;2023-11-19T05:58:41;28.33;;;11.45;;
26311;SDS011;14019;56.964;24.016;2023-11-19T06:01:30;26.60;;;11.05;;
26311;SDS011;14019;56.964;24.016;2023-11-19T06:04:16;30.25;;;12.30;;
26311;SDS011;14019;56.964;24.016;2023-11-19T06:07:03;28.23;;;12.32;;
26311;SDS011;14019;56.964;24.016;2023-11-19T06:09:50;24.73;;;11.30;;
26311;SDS011;14019;56.964;24.016;2023-11-19T06:12:37;27.70;;;11.25;;
26311;SDS011;14019;56.964;24.016;2023-11-19T06:15:23;25.17;;;11.07;;
26311;SDS011;14019;56.964;24.016;2023-11-19T06:18:09;24.38;;;10.80;;
26311;SDS011;14019;56.964;24.016;2023-11-19T06:20:58;24.75;;;10.30;;
26311;SDS011;14019;56.964;24.016;2023-11-19T06:23:44;26.77;;;11.35;;
26311;SDS011;14019;56.964;24.016;2023-11-19T06:26:30;26.13;;;11.05;;
26311;SDS011;14019;56.964;24.016;2023-11-19T06:29:16;26.77;;;11.55;;
26311;SDS011;14019;56.964;24.016;2023-11-19T06:32:05;25.65;;;11.25;;
26311;SDS011;14019;56.964;24.016;2023-11-19T06:34:54;27.50;;;10.88;;
26311;SDS011;14019;56.964;24.016;2023-11-19T06:37:41;25.27;;;10.50;;
26311;SDS011;14019;56.964;24.016;2023-11-19T06:40:30;27.98;;;11.02;;
26311;SDS011;14019;56.964;24.016;2023-11-19T06:43:17;30.65;;;11.70;;
26311;SDS011;14019;56.964;24.016;2023-11-19T06:46:03;26.85;;;11.02;;
26311;SDS011;14019;56.964;24.016;2023-11-19T06:48:51;27.98;;;11.55;;
26311;SDS011;14019;56.964;24.016;2023-11-19T06:51:41;25.92;;;11.70;;
26311;SDS011;14019;56.964;24.016;2023-11-19T06:54:29;27.63;;;11.27;;
26311;SDS011;14019;56.964;24.016;2023-11-19T06:57:16;25.05;;;11.32;;
26311;SDS011;14019;56.964;24.016;2023-11-19T07:00:02;26.65;;;11.70;;
26311;SDS011;14019;56.964;24.016;2023-11-19T07:02:51;27.60;;;11.43;;
26311;SDS011;14019;56.964;24.016;2023-11-19T07:05:38;26.80;;;12.00;;
26311;SDS011;14019;56.964;24.016;2023-11-19T07:08:24;27.38;;;11.93;;
26311;SDS011;14019;56.964;24.016;2023-11-19T07:11:10;30.27;;;12.13;;
26311;SDS011;14019;56.964;24.016;2023-11-19T07:13:56;30.73;;;12.00;;
26311;SDS011;14019;56.964;24.016;2023-11-19T07:16:43;27.83;;;12.07;;
26311;SDS011;14019;56.964;24.016;2023-11-19T07:19:29;28.67;;;12.15;;
26311;SDS011;14019;56.964;24.016;2023-11-19T07:22:15;25.98;;;11.90;;
26311;SDS011;14019;56.964;24.016;2023-11-19T07:25:02;27.85;;;12.13;;
26311;SDS011;14019;56.964;24.016;2023-11-19T07:27:49;27.30;;;12.45;;
26311;SDS011;14019;56.964;24.016;2023-11-19T07:30:37;29.75;;;12.82;;
26311;SDS011;14019;56.964;24.016;2023-11-19T07:33:24;29.35;;;11.82;;
26311;SDS011;14019;56.964;24.016;2023-11-19T07:36:10;27.77;;;12.52;;
26311;SDS011;14019;56.964;24.016;2023-11-19T07:38:56;29.45;;;12.30;;
26311;SDS011;14019;56.964;24.016;2023-11-19T07:41:44;27.23;;;11.82;;
26311;SDS011;14019;56.964;24.016;2023-11-19T07:44:32;28.92;;;12.07;;
26311;SDS011;14019;56.964;24.016;2023-11-19T07:47:18;31.15;;;12.48;;
26311;SDS011;14019;56.964;24.016;2023-11-19T07:50:09;30.02;;;12.70;;
26311;SDS011;14019;56.964;24.016;2023-11-19T07:52:55;28.63;;;12.57;;
26311;SDS011;14019;56.964;24.016;2023-11-19T07:55:42;30.25;;;12.93;;
26311;SDS011;14019;56.964;24.016;2023-11-19T07:58:29;34.03;;;13.00;;
26311;SDS011;14019;56.964;24.016;2023-11-19T08:01:15;33.10;;;13.10;;
26311;SDS011;14019;56.964;24.016;2023-11-19T08:04:02;29.30;;;12.73;;
26311;SDS011;14019;56.964;24.016;2023-11-19T08:06:48;28.35;;;12.88;;
26311;SDS011;14019;56.964;24.016;2023-11-19T08:09:35;29.10;;;12.90;;
26311;SDS011;14019;56.964;24.016;2023-11-19T08:12:22;26.98;;;12.20;;
26311;SDS011;14019;56.964;24.016;2023-11-19T08:15:08;27.65;;;12.40;;
26311;SDS011;14019;56.964;24.016;2023-11-19T08:17:55;28.05;;;12.23;;
26311;SDS011;14019;56.964;24.016;2023-11-19T08:20:41;27.45;;;12.25;;
26311;SDS011;14019;56.964;24.016;2023-11-19T08:23:30;28.05;;;12.70;;
26311;SDS011;14019;56.964;24.016;2023-11-19T08:26:16;28.88;;;12.38;;
26311;SDS011;14019;56.964;24.016;2023-11-19T08:29:05;25.88;;;11.93;;
26311;SDS011;14019;56.964;24.016;2023-11-19T08:31:52;28.85;;;12.38;;
26311;SDS011;14019;56.964;24.016;2023-11-19T08:34:38;29.58;;;12.73;;
26311;SDS011;14019;56.964;24.016;2023-11-19T08:37:24;30.13;;;12.52;;
26311;SDS011;14019;56.964;24.016;2023-11-19T08:40:12;30.60;;;12.70;;
26311;SDS011;14019;56.964;24.016;2023-11-19T08:43:00;26.80;;;11.95;;
26311;SDS011;14019;56.964;24.016;2023-11-19T08:45:47;26.90;;;11.82;;
26311;SDS011;14019;56.964;24.016;2023-11-19T08:48:33;25.15;;;12.00;;
26311;SDS011;14019;56.964;24.016;2023-11-19T08:51:19;30.23;;;12.75;;
26311;SDS011;14019;56.964;24.016;2023-11-19T08:54:08;28.02;;;11.93;;
26311;SDS011;14019;56.964;24.016;2023-11-19T08:56:56;28.48;;;12.40;;
26311;SDS011;14019;56.964;24.016;2023-11-19T08:59:42;29.02;;;12.57;;
26311;SDS011;14019;56.964;24.016;2023-11-19T09:02:31;26.38;;;12.32;;
26311;SDS011;14019;56.964;24.016;2023-11-19T09:05:18;26.95;;;12.13;;
26311;SDS011;14019;56.964;24.016;2023-11-19T09:11:16;24.33;;;11.55;;
26311;SDS011;14019;56.964;24.016;2023-11-19T09:14:03;25.13;;;11.80;;
26311;SDS011;14019;56.964;24.016;2023-11-19T09:16:51;26.80;;;12.50;;
26311;SDS011;14019;56.964;24.016;2023-11-19T09:19:38;28.90;;;11.90;;
26311;SDS011;14019;56.964;24.016;2023-11-19T09:22:24;26.63;;;12.80;;
26311;SDS011;14019;56.964;24.016;2023-11-19T09:25:11;24.75;;;11.80;;
26311;SDS011;14019;56.964;24.016;2023-11-19T09:28:05;27.05;;;11.27;;
26311;SDS011;14019;56.964;24.016;2023-11-19T09:30:57;24.73;;;11.27;;
26311;SDS011;14019;56.964;24.016;2023-11-19T09:33:44;26.40;;;11.13;;
26311;SDS011;14019;56.964;24.016;2023-11-19T09:36:31;26.27;;;10.88;;
26311;SDS011;14019;56.964;24.016;2023-11-19T09:39:17;22.65;;;10.00;;
26311;SDS011;14019;56.964;24.016;2023-11-19T09:42:07;21.55;;;9.95;;
26311;SDS011;14019;56.964;24.016;2023-11-19T09:44:54;24.20;;;10.23;;
26311;SDS011;14019;56.964;24.016;2023-11-19T09:47:43;25.42;;;10.82;;
26311;SDS011;14019;56.964;24.016;2023-11-19T09:50:30;21.05;;;9.73;;
26311;SDS011;14019;56.964;24.016;2023-11-19T09:53:17;25.65;;;10.95;;
26311;SDS011;14019;56.964;24.016;2023-11-19T09:56:05;25.60;;;10.20;;
26311;SDS011;14019;56.964;24.016;2023-11-19T09:58:53;25.45;;;11.18;;
26311;SDS011;14019;56.964;24.016;2023-11-19T10:01:41;25.80;;;10.57;;
26311;SDS011;14019;56.964;24.016;2023-11-19T10:04:31;24.80;;;11.13;;
26311;SDS011;14019;56.964;24.016;2023-11-19T10:07:18;22.65;;;10.13;;
26311;SDS011;14019;56.964;24.016;2023-11-19T10:10:06;27.20;;;10.85;;
26311;SDS011;14019;56.964;24.016;2023-11-19T10:12:56;21.98;;;10.48;;
26311;SDS011;14019;56.964;24.016;2023-11-19T10:15:42;26.00;;;10.25;;
26311;SDS011;14019;56.964;24.016;2023-11-19T10:18:29;26.25;;;11.27;;
26311;SDS011;14019;56.964;24.016;2023-11-19T10:21:19;23.30;;;10.70;;
26311;SDS011;14019;56.964;24.016;2023-11-19T10:24:05;20.98;;;10.63;;
26311;SDS011;14019;56.964;24.016;2023-11-19T10:26:54;26.40;;;11.00;;
26311;SDS011;14019;56.964;24.016;2023-11-19T10:29:46;21.35;;;10.18;;
26311;SDS011;14019;56.964;24.016;2023-11-19T10:32:32;23.33;;;10.50;;
26311;SDS011;14019;56.964;24.016;2023-11-19T10:35:18;21.65;;;9.55;;
26311;SDS011;14019;56.964;24.016;2023-11-19T10:38:14;21.15;;;10.35;;
26311;SDS011;14019;56.964;24.016;2023-11-19T10:41:01;20.08;;;9.20;;
26311;SDS011;14019;56.964;24.016;2023-11-19T10:43:47;27.38;;;11.13;;
26311;SDS011;14019;56.964;24.016;2023-11-19T10:46:40;22.58;;;10.38;;
26311;SDS011;14019;56.964;24.016;2023-11-19T10:49:26;22.23;;;10.60;;
26311;SDS011;14019;56.964;24.016;2023-11-19T10:52:14;22.13;;;10.48;;
26311;SDS011;14019;56.964;24.016;2023-11-19T10:55:02;22.55;;;10.18;;
26311;SDS011;14019;56.964;24.016;2023-11-19T10:57:55;23.85;;;10.80;;
26311;SDS011;14019;56.964;24.016;2023-11-19T11:00:47;22.63;;;10.60;;
26311;SDS011;14019;56.964;24.016;2023-11-19T11:03:39;25.88;;;10.35;;
26311;SDS011;14019;56.964;24.016;2023-11-19T11:06:35;22.33;;;9.43;;
26311;SDS011;14019;56.964;24.016;2023-11-19T11:09:23;23.42;;;10.75;;
26311;SDS011;14019;56.964;24.016;2023-11-19T11:12:12;23.40;;;10.15;;
26311;SDS011;14019;56.964;24.016;2023-11-19T11:14:58;22.80;;;10.25;;
26311;SDS011;14019;56.964;24.016;2023-11-19T11:18:04;22.55;;;10.20;;
26311;SDS011;14019;56.964;24.016;2023-11-19T11:20:55;22.42;;;10.90;;
26311;SDS011;14019;56.964;24.016;2023-11-19T11:24:07;23.23;;;11.00;;
26311;SDS011;14019;56.964;24.016;2023-11-19T11:36:06;19.10;;;9.27;;
26311;SDS011;14019;56.964;24.016;2023-11-19T11:38:49;23.95;;;9.05;;
26311;SDS011;14019;56.964;24.016;2023-11-19T11:41:35;23.20;;;9.73;;
26311;SDS011;14019;56.964;24.016;2023-11-19T11:44:57;22.73;;;9.30;;
26311;SDS011;14019;56.964;24.016;2023-11-19T11:50:49;21.80;;;9.27;;
26311;SDS011;14019;56.964;24.016;2023-11-19T11:53:35;23.13;;;9.75;;
26311;SDS011;14019;56.964;24.016;2023-11-19T11:56:22;21.92;;;9.23;;
26311;SDS011;14019;56.964;24.016;2023-11-19T11:59:18;21.05;;;9.77;;
26311;SDS011;14019;56.964;24.016;2023-11-19T12:02:21;18.92;;;8.93;;
26311;SDS011;14019;56.964;24.016;2023-11-19T12:05:08;21.33;;;9.13;;
26311;SDS011;14019;56.964;24.016;2023-11-19T12:07:59;23.63;;;9.38;;
26311;SDS011;14019;56.964;24.016;2023-11-19T12:10:50;21.52;;;9.65;;
26311;SDS011;14019;56.964;24.016;2023-11-19T12:13:53;20.25;;;9.52;;
26311;SDS011;14019;56.964;24.016;2023-11-19T12:16:48;18.83;;;9.30;;
26311;SDS011;14019;56.964;24.016;2023-11-19T12:19:35;21.17;;;9.55;;
26311;SDS011;14019;56.964;24.016;2023-11-19T12:22:24;23.05;;;9.35;;
26311;SDS011;14019;56.964;24.016;2023-11-19T12:25:13;20.42;;;8.77;;
26311;SDS011;14019;56.964;24.016;2023-11-19T12:28:01;21.17;;;9.50;;
26311;SDS011;14019;56.964;24.016;2023-11-19T12:30:52;18.75;;;8.98;;
26311;SDS011;14019;56.964;24.016;2023-11-19T12:33:41;22.13;;;9.07;;
26311;SDS011;14019;56.964;24.016;2023-11-19T12:36:28;20.92;;;8.98;;
26311;SDS011;14019;56.964;24.016;2023-11-19T12:39:15;17.75;;;8.07;;
26311;SDS011;14019;56.964;24.016;2023-11-19T12:42:02;17.92;;;8.77;;
26311;SDS011;14019;56.964;24.016;2023-11-19T12:44:55;24.65;;;9.40;;
26311;SDS011;14019;56.964;24.016;2023-11-19T12:47:43;16.88;;;8.70;;
26311;SDS011;14019;56.964;24.016;2023-11-19T12:50:52;19.27;;;8.75;;
26311;SDS011;14019;56.964;24.016;2023-11-19T12:53:47;19.33;;;8.82;;
26311;SDS011;14019;56.964;24.016;2023-11-19T12:56:35;17.42;;;8.00;;
26311;SDS011;14019;56.964;24.016;2023-11-19T12:59:23;21.45;;;8.93;;
26311;SDS011;14019;56.964;24.016;2023-11-19T13:02:10;19.50;;;9.13;;
26311;SDS011;14019;56.964;24.016;2023-11-19T13:04:56;18.42;;;9.10;;
26311;SDS011;14019;56.964;24.016;2023-11-19T13:07:45;17.48;;;8.30;;
26311;SDS011;14019;56.964;24.016;2023-11-19T13:16:41;20.35;;;8.35;;
26311;SDS011;14019;56.964;24.016;2023-11-19T13:19:28;16.95;;;7.88;;
26311;SDS011;14019;56.964;24.016;2023-11-19T13:22:14;16.98;;;8.15;;
26311;SDS011;14019;56.964;24.016;2023-11-19T13:25:00;17.77;;;8.02;;
26311;SDS011;14019;56.964;24.016;2023-11-19T13:27:47;17.80;;;7.38;;
26311;SDS011;14019;56.964;24.016;2023-11-19T13:30:34;21.40;;;8.88;;
26311;SDS011;14019;56.964;24.016;2023-11-19T13:33:24;17.70;;;8.40;;
26311;SDS011;14019;56.964;24.016;2023-11-19T13:36:10;21.10;;;8.75;;
26311;SDS011;14019;56.964;24.016;2023-11-19T13:39:01;12.25;;;6.32;;
26311;SDS011;14019;56.964;24.016;2023-11-19T13:41:47;13.15;;;6.53;;
26311;SDS011;14019;56.964;24.016;2023-11-19T13:44:33;12.30;;;6.07;;
26311;SDS011;14019;56.964;24.016;2023-11-19T13:47:19;14.50;;;6.50;;
26311;SDS011;14019;56.964;24.016;2023-11-19T13:50:06;14.02;;;6.03;;
26311;SDS011;14019;56.964;24.016;2023-11-19T13:52:52;15.05;;;6.65;;
26311;SDS011;14019;56.964;24.016;2023-11-19T13:55:39;13.93;;;6.50;;
26311;SDS011;14019;56.964;24.016;2023-11-19T13:58:25;16.48;;;6.97;;
26311;SDS011;14019;56.964;24.016;2023-11-19T14:01:11;17.00;;;7.63;;
26311;SDS011;14019;56.964;24.016;2023-11-19T14:03:59;16.17;;;7.68;;
26311;SDS011;14019;56.964;24.016;2023-11-19T14:06:45;18.38;;;7.72;;
26311;SDS011;14019;56.964;24.016;2023-11-19T14:09:32;18.58;;;8.02;;
26311;SDS011;14019;56.964;24.016;2023-11-19T14:12:18;18.60;;;8.52;;
26311;SDS011;14019;56.964;24.016;2023-11-19T14:15:05;18.33;;;8.18;;
26311;SDS011;14019;56.964;24.016;2023-11-19T14:17:53;24.10;;;8.38;;
26311;SDS011;14019;56.964;24.016;2023-11-19T14:20:39;21.92;;;9.10;;
26311;SDS011;14019;56.964;24.016;2023-11-19T14:23:25;22.95;;;9.20;;
26311;SDS011;14019;56.964;24.016;2023-11-19T14:26:12;24.90;;;10.63;;
26311;SDS011;14019;56.964;24.016;2023-11-19T14:28:58;26.23;;;10.70;;
26311;SDS011;14019;56.964;24.016;2023-11-19T14:31:44;28.27;;;12.25;;
26311;SDS011;14019;56.964;24.016;2023-11-19T14:34:31;32.67;;;13.73;;
26311;SDS011;14019;56.964;24.016;2023-11-19T14:37:18;33.80;;;13.82;;
26311;SDS011;14019;56.964;24.016;2023-11-19T14:40:05;39.05;;;14.43;;
26311;SDS011;14019;56.964;24.016;2023-11-19T14:42:55;44.33;;;16.92;;
26311;SDS011;14019;56.964;24.016;2023-11-19T14:45:41;37.03;;;14.40;;
26311;SDS011;14019;56.964;24.016;2023-11-19T14:48:34;27.23;;;11.80;;
26311;SDS011;14019;56.964;24.016;2023-11-19T14:51:21;34.03;;;12.95;;
26311;SDS011;14019;56.964;24.016;2023-11-19T14:54:08;32.75;;;12.32;;
26311;SDS011;14019;56.964;24.016;2023-11-19T14:56:54;28.90;;;12.20;;
26311;SDS011;14019;56.964;24.016;2023-11-19T14:59:40;28.08;;;11.95;;
26311;SDS011;14019;56.964;24.016;2023-11-19T15:02:27;28.13;;;11.57;;
26311;SDS011;14019;56.964;24.016;2023-11-19T15:05:13;32.03;;;13.05;;
26311;SDS011;14019;56.964;24.016;2023-11-19T15:07:59;34.08;;;12.90;;
26311;SDS011;14019;56.964;24.016;2023-11-19T15:10:46;32.25;;;12.50;;
26311;SDS011;14019;56.964;24.016;2023-11-19T15:13:32;31.50;;;13.10;;
26311;SDS011;14019;56.964;24.016;2023-11-19T15:16:18;36.03;;;14.13;;
26311;SDS011;14019;56.964;24.016;2023-11-19T15:19:16;34.33;;;14.02;;
26311;SDS011;14019;56.964;24.016;2023-11-19T15:22:03;33.20;;;13.05;;
26311;SDS011;14019;56.964;24.016;2023-11-19T15:24:51;32.45;;;12.88;;
26311;SDS011;14019;56.964;24.016;2023-11-19T15:27:38;28.45;;;11.50;;
26311;SDS011;14019;56.964;24.016;2023-11-19T15:30:25;28.63;;;12.15;;
26311;SDS011;14019;56.964;24.016;2023-11-19T15:33:11;28.02;;;11.70;;
26311;SDS011;14019;56.964;24.016;2023-11-19T15:35:57;29.58;;;12.63;;
26311;SDS011;14019;56.964;24.016;2023-11-19T15:38:45;34.53;;;12.50;;
26311;SDS011;14019;56.964;24.016;2023-11-19T15:41:34;30.33;;;12.77;;
26311;SDS011;14019;56.964;24.016;2023-11-19T15:44:21;29.77;;;12.32;;
26311;SDS011;14019;56.964;24.016;2023-11-19T15:47:07;31.80;;;11.82;;
26311;SDS011;14019;56.964;24.016;2023-11-19T15:49:57;28.63;;;11.07;;
26311;SDS011;14019;56.964;24.016;2023-11-19T15:52:45;28.73;;;11.00;;
26311;SDS011;14019;56.964;24.016;2023-11-19T15:55:31;25.88;;;10.45;;
26311;SDS011;14019;56.964;24.016;2023-11-19T15:58:18;26.48;;;10.60;;
26311;SDS011;14019;56.964;24.016;2023-11-19T16:01:05;30.30;;;11.68;;
26311;SDS011;14019;56.964;24.016;2023-11-19T16:03:51;27.23;;;10.93;;
26311;SDS011;14019;56.964;24.016;2023-11-19T16:06:41;28.10;;;11.32;;
26311;SDS011;14019;56.964;24.016;2023-11-19T16:09:41;28.75;;;10.50;;
26311;SDS011;14019;56.964;24.016;2023-11-19T16:12:28;35.30;;;11.68;;
26311;SDS011;14019;56.964;24.016;2023-11-19T16:15:14;28.95;;;11.55;;
26311;SDS011;14019;56.964;24.016;2023-11-19T16:18:21;33.03;;;12.45;;
26311;SDS011;14019;56.964;24.016;2023-11-19T16:21:07;31.40;;;12.52;;
26311;SDS011;14019;56.964;24.016;2023-11-19T16:23:54;26.63;;;11.48;;
26311;SDS011;14019;56.964;24.016;2023-11-19T16:26:40;28.02;;;11.48;;
26311;SDS011;14019;56.964;24.016;2023-11-19T16:29:26;29.13;;;12.27;;
26311;SDS011;14019;56.964;24.016;2023-11-19T16:32:13;28.48;;;12.73;;